Time;durP1;ratioP1;P1;durP2;ratioP2;P2;SDS_P1;SDS_P2;PMS_P1;PMS_P2;Temp;Humidity;BMP_temperature;BMP_pressure;BME280_temperature;BME280_humidity;BME280_pressure;Samples;Min_cycle;Max_cycle;Signal;HPM_P1;HPM_P2
2022/01/21 00:00:41;;;;;;;17.88;1.92;;;;;;;;;;5095018;28;20079;-70
2022/01/21 00:03:07;;;;;;;13.30;1.88;;;;;;;;;;5103669;28;20035;-70
2022/01/21 00:05:34;;;;;;;13.82;2.72;;;;;;;;;;5101862;28;20500;-71
2022/01/21 00:08:00;;;;;;;10.07;1.55;;;;;;;;;;5104020;28;20032;-70
2022/01/21 00:10:26;;;;;;;8.95;1.40;;;;;;;;;;5080280;28;20467;-71
2022/01/21 00:12:53;;;;;;;10.48;1.77;;;;;;;;;;5107903;28;20573;-70
2022/01/21 00:15:20;;;;;;;6.88;1.48;;;;;;;;;;5112980;28;20034;-71
2022/01/21 00:17:46;;;;;;;16.25;1.95;;;;;;;;;;5094662;28;20484;-70
2022/01/21 00:31:30;;;;;;;19.80;2.42;;;;;;;;;;5084476;28;20054;-70
2022/01/21 00:33:56;;;;;;;13.52;2.13;;;3.50;99.90;;;;;;5104943;28;20046;-70
2022/01/21 00:36:22;;;;;;;16.85;2.95;;;;;;;;;;5103949;28;20036;-70
2022/01/21 00:38:48;;;;;;;19.08;2.75;;;;;;;;;;5076823;28;20090;-70
2022/01/21 00:41:20;;;;;;;18.25;2.67;;;;;;;;;;5081814;28;20063;-70
2022/01/21 00:43:46;;;;;;;10.55;2.88;;;;;;;;;;5112629;28;20538;-70
2022/01/21 00:46:12;;;;;;;17.15;2.47;;;3.70;99.90;;;;;;5091991;28;20043;-70
2022/01/21 00:48:38;;;;;;;19.75;2.38;;;;;;;;;;5104924;28;20128;-71
2022/01/21 00:51:04;;;;;;;23.08;3.20;;;;;;;;;;5080226;28;20032;-70
2022/01/21 00:53:30;;;;;;;16.83;3.15;;;;;;;;;;5110025;28;20036;-70
2022/01/21 00:55:57;;;;;;;29.02;2.70;;;;;;;;;;5111468;28;20055;-70
2022/01/21 00:58:23;;;;;;;16.77;2.50;;;;;;;;;;5077362;28;20061;-70
2022/01/21 01:00:49;;;;;;;21.10;2.42;;;;;;;;;;5112630;28;20035;-70
2022/01/21 01:03:15;;;;;;;23.48;2.33;;;3.70;99.90;;;;;;5097755;28;20132;-70
2022/01/21 01:05:41;;;;;;;13.98;1.85;;;;;;;;;;5112154;28;20472;-70
2022/01/21 01:08:08;;;;;;;10.88;2.30;;;;;;;;;;5079372;28;20064;-70
2022/01/21 01:21:18;;;;;;;17.63;2.63;;;;;;;;;;5111138;28;20046;-70
2022/01/21 01:24:04;;;;;;;18.58;2.95;;;;;;;;;;5107283;28;20039;-70
2022/01/21 01:29:16;;;;;;;14.40;2.38;;;;;;;;;;5106567;28;20101;-70
2022/01/21 01:31:42;;;;;;;16.55;2.80;;;;;;;;;;5095228;28;20091;-70
2022/01/21 01:34:08;;;;;;;17.48;2.83;;;;;;;;;;5111384;28;20103;-70
2022/01/21 01:36:34;;;;;;;12.75;2.10;;;;;;;;;;5106343;28;20036;-70
2022/01/21 01:41:38;;;;;;;22.33;3.13;;;;;;;;;;5107390;28;20035;-70
2022/01/21 01:49:38;;;;;;;15.13;1.75;;;;;;;;;;5097348;28;20044;-70
2022/01/21 01:52:10;;;;;;;17.92;2.13;;;3.50;99.90;;;;;;5103109;28;20032;-71
2022/01/21 01:54:40;;;;;;;18.58;2.53;;;3.50;99.90;;;;;;5093558;28;20136;-70
2022/01/21 01:57:06;;;;;;;16.15;2.40;;;;;;;;;;5095657;28;20123;-70
2022/01/21 01:59:33;;;;;;;14.00;2.08;;;;;;;;;;5094510;28;20059;-70
2022/01/21 02:02:15;;;;;;;17.33;2.28;;;3.50;99.90;;;;;;5095598;28;20035;-70
2022/01/21 02:04:42;;;;;;;13.95;1.70;;;;;;;;;;5107384;28;20096;-70
2022/01/21 02:07:08;;;;;;;14.30;1.88;;;;;;;;;;5092968;28;20036;-70
2022/01/21 02:09:34;;;;;;;19.20;2.90;;;;;;;;;;5093596;28;20544;-71
2022/01/21 02:12:00;;;;;;;16.02;1.88;;;4.10;99.90;;;;;;5095191;28;20491;-70
2022/01/21 02:14:34;;;;;;;19.52;2.90;;;;;;;;;;5108224;28;20027;-70
2022/01/21 02:22:14;;;;;;;14.23;2.28;;;;;;;;;;5092315;28;20086;-70
2022/01/21 02:24:56;;;;;;;13.07;1.92;;;;;;;;;;5091906;28;20062;-70
2022/01/21 02:27:22;;;;;;;13.98;2.35;;;;;;;;;;5110798;28;20051;-70
2022/01/21 02:29:54;;;;;;;18.27;2.70;;;;;;;;;;5093752;28;20039;-70
2022/01/21 02:32:22;;;;;;;14.82;2.03;;;4.20;99.90;;;;;;5093035;28;20059;-70
2022/01/21 02:34:48;;;;;;;18.17;2.38;;;4.20;99.90;;;;;;5092962;28;20040;-70
2022/01/21 02:37:18;;;;;;;18.60;2.75;;;4.00;99.90;;;;;;5092552;28;20171;-70
2022/01/21 02:39:44;;;;;;;9.60;1.67;;;;;;;;;;5106831;28;20051;-70
2022/01/21 02:42:10;;;;;;;11.02;1.38;;;;;;;;;;5093473;28;20036;-70
2022/01/21 02:44:38;;;;;;;10.90;2.15;;;;;;;;;;5107478;28;20040;-70
2022/01/21 02:47:05;;;;;;;11.43;1.92;;;;;;;;;;5107239;28;20044;-70
2022/01/21 02:49:31;;;;;;;8.63;2.13;;;3.50;99.90;;;;;;5105975;28;20035;-70
2022/01/21 02:52:03;;;;;;;10.15;2.80;;;3.60;99.90;;;;;;5110853;28;20036;-70
2022/01/21 02:54:30;;;;;;;8.35;1.73;;;3.60;99.90;;;;;;5098078;28;20086;-70
2022/01/21 02:56:57;;;;;;;9.70;1.52;;;;;;;;;;5096816;28;20126;-71
2022/01/21 02:59:23;;;;;;;11.95;1.98;;;;;;;;;;5105795;28;20039;-71
2022/01/21 03:01:50;;;;;;;14.45;2.20;;;;;;;;;;5096019;28;20032;-70
2022/01/21 03:04:25;;;;;;;11.13;1.70;;;;;;;;;;5106615;28;20044;-70
2022/01/21 03:06:51;;;;;;;20.90;2.20;;;;;;;;;;5113087;28;20080;-70
2022/01/21 03:09:17;;;;;;;9.98;1.75;;;;;;;;;;5105394;28;20075;-70
2022/01/21 03:11:44;;;;;;;11.20;1.65;;;;;;;;;;5080148;28;20039;-70
2022/01/21 03:14:10;;;;;;;8.60;1.63;;;;;;;;;;5080495;28;20035;-70
2022/01/21 03:16:36;;;;;;;11.25;1.63;;;;;;;;;;5113215;28;20061;-69
2022/01/21 03:19:02;;;;;;;10.50;1.80;;;;;;;;;;5108688;28;20039;-70
2022/01/21 03:21:28;;;;;;;9.77;2.25;;;;;;;;;;5098124;28;20054;-71
2022/01/21 03:23:55;;;;;;;10.55;2.55;;;;;;;;;;5086853;28;20028;-71
2022/01/21 03:26:22;;;;;;;10.65;1.70;;;;;;;;;;5110533;28;20547;-71
2022/01/21 03:28:50;;;;;;;11.73;3.20;;;;;;;;;;5096588;28;20429;-71
2022/01/21 03:31:16;;;;;;;10.38;1.65;;;;;;;;;;5108667;28;20050;-71
2022/01/21 03:33:42;;;;;;;12.98;2.33;;;;;;;;;;5096442;28;20048;-71
2022/01/21 03:36:09;;;;;;;11.85;2.33;;;3.80;99.90;;;;;;5108064;28;20114;-71
2022/01/21 03:38:36;;;;;;;11.30;2.47;;;3.90;99.90;;;;;;5078896;28;20038;-71
2022/01/21 03:41:02;;;;;;;11.70;2.00;;;3.80;99.90;;;;;;5110064;28;20119;-71
2022/01/21 03:43:28;;;;;;;12.45;2.67;;;;;;;;;;5113951;28;20087;-71
2022/01/21 03:45:55;;;;;;;12.65;1.92;;;3.70;99.90;;;;;;5104637;28;20104;-70
2022/01/21 03:48:21;;;;;;;16.35;2.38;;;3.90;99.90;;;;;;5113627;28;20079;-71
2022/01/21 03:50:48;;;;;;;11.90;1.90;;;;;;;;;;5112730;28;20043;-71
2022/01/21 03:53:14;;;;;;;15.95;2.83;;;3.90;99.90;;;;;;5112660;28;20391;-70
2022/01/21 03:55:40;;;;;;;19.90;2.72;;;;;;;;;;5091828;28;20036;-70
2022/01/21 03:58:08;;;;;;;15.60;2.42;;;3.70;99.90;;;;;;5113356;28;20399;-70
2022/01/21 04:00:41;;;;;;;17.15;2.22;;;3.80;99.90;;;;;;5081241;28;20043;-70
2022/01/21 04:03:07;;;;;;;11.32;1.70;;;;;;;;;;5094990;28;20036;-70
2022/01/21 04:05:34;;;;;;;10.50;2.03;;;;;;;;;;5107453;28;20043;-70
2022/01/21 04:08:01;;;;;;;12.20;1.83;;;;;;;;;;5097691;28;20043;-70
2022/01/21 04:10:27;;;;;;;17.00;2.00;;;;;;;;;;5102091;28;20028;-70
2022/01/21 04:12:53;;;;;;;15.48;2.53;;;;;;;;;;5097503;28;20080;-70
2022/01/21 04:15:19;;;;;;;10.70;1.80;;;;;;;;;;5108136;28;20027;-70
2022/01/21 04:17:45;;;;;;;13.65;1.65;;;;;;;;;;5108572;28;20130;-70
2022/01/21 04:20:13;;;;;;;8.63;1.85;;;3.80;99.90;;;;;;5102794;28;20035;-70
2022/01/21 04:22:39;;;;;;;11.13;2.78;;;;;;;;;;5108354;28;20058;-70
2022/01/21 04:25:06;;;;;;;13.05;1.83;;;3.90;99.90;;;;;;5102977;28;20032;-70
2022/01/21 04:27:32;;;;;;;22.70;3.05;;;;;;;;;;5111379;28;20039;-70
2022/01/21 04:29:58;;;;;;;16.88;2.53;;;;;;;;;;5107422;28;20035;-70
2022/01/21 04:32:25;;;;;;;15.52;1.85;;;;;;;;;;5094302;28;20097;-70
2022/01/21 04:34:51;;;;;;;15.02;2.05;;;;;;;;;;5100728;28;20036;-70
2022/01/21 04:37:17;;;;;;;6.13;1.73;;;;;;;;;;5112714;28;20398;-70
2022/01/21 04:47:59;;;;;;;10.32;2.10;;;;;;;;;;5085226;28;20051;-70
2022/01/21 04:50:26;;;;;;;9.23;1.80;;;;;;;;;;5095160;28;20365;-70
2022/01/21 04:52:52;;;;;;;15.00;1.65;;;;;;;;;;5094007;28;20036;-70
2022/01/21 04:55:18;;;;;;;11.50;1.73;;;;;;;;;;5106654;28;20027;-70
2022/01/21 04:57:44;;;;;;;11.18;1.70;;;;;;;;;;5112460;28;20054;-70
2022/01/21 05:00:11;;;;;;;11.75;1.63;;;3.70;99.90;;;;;;5111432;28;20135;-70
2022/01/21 05:02:37;;;;;;;15.88;2.53;;;;;;;;;;5079651;28;20043;-70
2022/01/21 05:05:04;;;;;;;18.15;1.85;;;3.30;99.90;;;;;;5108652;28;20181;-70
2022/01/21 05:07:36;;;;;;;12.43;2.17;;;;;;;;;;5112103;28;20043;-70
2022/01/21 05:10:03;;;;;;;19.95;1.90;;;;;;;;;;5111091;28;20508;-70
2022/01/21 05:12:30;;;;;;;15.85;1.85;;;;;;;;;;5094868;28;20031;-70
2022/01/21 05:17:23;;;;;;;19.35;1.98;;;;;;;;;;5077022;28;20044;-70
2022/01/21 05:19:49;;;;;;;10.05;2.08;;;;;;;;;;5094553;28;20044;-70
2022/01/21 05:22:15;;;;;;;10.65;1.48;;;;;;;;;;5094587;28;20040;-70
2022/01/21 05:24:41;;;;;;;16.73;3.22;;;;;;;;;;5094022;28;20512;-70
2022/01/21 05:27:08;;;;;;;10.52;1.95;;;;;;;;;;5111684;28;20032;-71
2022/01/21 05:29:35;;;;;;;16.55;2.47;;;;;;;;;;5110920;28;20082;-70
2022/01/21 05:32:04;;;;;;;15.77;1.95;;;3.80;99.90;;;;;;5108977;28;20060;-70
2022/01/21 05:34:30;;;;;;;12.02;1.73;;;;;;;;;;5111612;28;20035;-70
2022/01/21 05:36:56;;;;;;;10.15;1.77;;;;;;;;;;5093761;28;20138;-70
2022/01/21 05:39:22;;;;;;;13.27;1.83;;;;;;;;;;5106855;28;20043;-70
2022/01/21 05:41:51;;;;;;;9.82;2.20;;;;;;;;;;5096143;28;20107;-71
2022/01/21 05:46:56;;;;;;;8.02;1.48;;;3.90;99.90;;;;;;5095663;28;20054;-70
2022/01/21 05:49:22;;;;;;;8.77;1.52;;;3.90;99.90;;;;;;5096915;28;20076;-71
2022/01/21 05:51:49;;;;;;;12.68;2.22;;;;;;;;;;5094293;28;20547;-71
2022/01/21 05:54:15;;;;;;;15.07;2.20;;;;;;;;;;5077400;28;20070;-71
2022/01/21 05:56:41;;;;;;;13.05;2.17;;;;;;;;;;5102195;28;20043;-71
2022/01/21 05:59:08;;;;;;;15.35;2.70;;;3.90;99.90;;;;;;5111798;28;20492;-71
2022/01/21 06:01:35;;;;;;;16.60;2.65;;;4.00;99.90;;;;;;5092958;28;20071;-70
2022/01/21 06:04:02;;;;;;;26.13;2.90;;;;;;;;;;5085344;28;20043;-71
2022/01/21 06:06:29;;;;;;;22.58;2.53;;;3.90;99.90;;;;;;5104218;28;20399;-71
2022/01/21 06:08:56;;;;;;;13.23;2.95;;;;;;;;;;5112963;28;20114;-70
2022/01/21 06:11:22;;;;;;;14.43;2.55;;;;;;;;;;5098743;28;20040;-71
2022/01/21 06:13:50;;;;;;;16.13;2.28;;;;;;;;;;5102507;28;20044;-71
2022/01/21 06:16:17;;;;;;;15.57;2.42;;;;;;;;;;5097252;28;20071;-71
2022/01/21 06:18:43;;;;;;;20.83;2.50;;;;;;;;;;5091696;28;20044;-71
2022/01/21 06:21:09;;;;;;;17.05;2.28;;;;;;;;;;5108306;28;20040;-71
2022/01/21 06:23:35;;;;;;;17.15;2.22;;;;;;;;;;5096751;28;20119;-71
2022/01/21 06:26:01;;;;;;;15.23;2.67;;;;;;;;;;5089692;28;20039;-71
2022/01/21 06:28:27;;;;;;;17.98;2.75;;;;;;;;;;5110626;28;20046;-71
2022/01/21 06:30:53;;;;;;;19.08;3.55;;;;;;;;;;5112293;28;20039;-70
2022/01/21 06:33:23;;;;;;;21.65;2.38;;;3.70;99.90;;;;;;5096627;28;20052;-71
2022/01/21 06:35:50;;;;;;;24.80;3.00;;;3.60;99.90;;;;;;5091608;28;20561;-71
2022/01/21 06:38:16;;;;;;;21.40;2.47;;;;;;;;;;5097512;28;20050;-71
2022/01/21 06:40:43;;;;;;;22.23;2.55;;;;;;;;;;5101608;28;20039;-71
2022/01/21 06:43:09;;;;;;;20.13;2.33;;;;;;;;;;5098461;28;20500;-71
2022/01/21 06:45:35;;;;;;;28.08;3.03;;;;;;;;;;5108702;28;20047;-71
2022/01/21 06:48:04;;;;;;;20.15;3.50;;;;;;;;;;5102467;28;20043;-71
2022/01/21 06:50:31;;;;;;;19.30;2.55;;;3.70;99.90;;;;;;5093991;28;20067;-71
2022/01/21 06:52:57;;;;;;;30.15;2.70;;;;;;;;;;5102637;28;20034;-71
2022/01/21 06:55:24;;;;;;;30.00;2.67;;;;;;;;;;5112527;28;20039;-71
2022/01/21 06:57:50;;;;;;;17.50;2.13;;;;;;;;;;5104244;28;20136;-71
2022/01/21 07:00:18;;;;;;;23.17;2.88;;;4.30;99.90;;;;;;5092636;28;20035;-71
2022/01/21 07:02:52;;;;;;;25.35;2.53;;;;;;;;;;5110769;28;20051;-71
2022/01/21 07:05:19;;;;;;;21.73;3.50;;;;;;;;;;5105504;28;20047;-71
2022/01/21 07:07:45;;;;;;;19.55;2.65;;;;;;;;;;5100225;28;20039;-72
2022/01/21 07:10:13;;;;;;;33.67;3.88;;;4.00;99.90;;;;;;5102862;28;20062;-71
2022/01/21 07:12:40;;;;;;;23.20;3.47;;;4.10;99.90;;;;;;5112721;28;20040;-70
2022/01/21 07:15:08;;;;;;;21.90;3.08;;;4.20;99.90;;;;;;5093473;28;20032;-70
2022/01/21 07:17:34;;;;;;;24.73;3.67;;;;;;;;;;5103330;28;20111;-70
2022/01/21 07:20:00;;;;;;;28.08;3.13;;;;;;;;;;5092172;28;20086;-70
2022/01/21 07:22:26;;;;;;;20.98;3.25;;;;;;;;;;5092013;28;20036;-71
2022/01/21 07:24:52;;;;;;;18.10;2.50;;;;;;;;;;5092729;28;20127;-71
2022/01/21 07:27:18;;;;;;;27.38;2.92;;;;;;;;;;5092921;28;20119;-71
2022/01/21 07:29:44;;;;;;;27.17;4.18;;;;;;;;;;5091661;28;20089;-78
2022/01/21 07:32:11;;;;;;;25.45;2.63;;;;;;;;;;5091697;28;20447;-77
2022/01/21 07:34:37;;;;;;;17.92;2.70;;;;;;;;;;5075087;28;20050;-75
2022/01/21 07:37:03;;;;;;;24.10;2.80;;;;;;;;;;5092275;28;20069;-77
2022/01/21 07:39:29;;;;;;;18.83;3.00;;;;;;;;;;5074920;28;20044;-77
2022/01/21 07:41:56;;;;;;;31.92;2.97;;;;;;;;;;5091813;28;20040;-71
2022/01/21 07:44:22;;;;;;;22.85;2.97;;;;;;;;;;5075180;28;20044;-71
2022/01/21 07:46:48;;;;;;;24.27;2.90;;;;;;;;;;5093238;28;20076;-70
2022/01/21 07:49:17;;;;;;;16.13;2.38;;;4.20;99.90;;;;;;5102924;28;20031;-71
2022/01/21 07:51:44;;;;;;;17.85;2.63;;;4.10;99.90;;;;;;5115641;28;20097;-71
2022/01/21 07:54:11;;;;;;;29.58;5.07;;;4.40;99.90;;;;;;5114021;28;20046;-70
2022/01/21 07:56:37;;;;;;;15.52;2.92;;;;;;;;;;5107862;28;20039;-71
2022/01/21 07:59:09;;;;;;;22.10;3.33;;;4.10;99.90;;;;;;5092463;28;20434;-71
2022/01/21 08:01:35;;;;;;;27.35;2.83;;;;;;;;;;5103450;28;20047;-71
2022/01/21 08:04:01;;;;;;;24.38;3.70;;;;;;;;;;5115628;28;20093;-71
2022/01/21 08:06:28;;;;;;;15.93;2.95;;;;;;;;;;5113650;28;20043;-70
2022/01/21 08:08:54;;;;;;;23.00;3.45;;;;;;;;;;5115294;28;20040;-70
2022/01/21 08:11:20;;;;;;;25.17;3.13;;;;;;;;;;5099500;28;20057;-70
2022/01/21 08:13:47;;;;;;;19.90;2.97;;;;;;;;;;5091012;28;20476;-70
2022/01/21 08:16:13;;;;;;;17.67;3.47;;;;;;;;;;5093088;28;20040;-72
2022/01/21 08:18:39;;;;;;;18.42;2.80;;;;;;;;;;5095807;28;20057;-70
2022/01/21 08:21:05;;;;;;;14.93;2.85;;;;;;;;;;5105618;28;20027;-70
2022/01/21 08:23:31;;;;;;;18.83;2.83;;;;;;;;;;5114981;28;20101;-70
2022/01/21 08:25:57;;;;;;;16.30;3.15;;;;;;;;;;5109276;28;20044;-70
2022/01/21 08:28:23;;;;;;;21.33;3.20;;;;;;;;;;5113255;28;20555;-70
2022/01/21 08:30:49;;;;;;;23.40;3.20;;;;;;;;;;5105777;28;20480;-70
2022/01/21 08:33:16;;;;;;;22.45;2.92;;;;;;;;;;5093117;28;20047;-70
2022/01/21 08:35:42;;;;;;;20.95;3.17;;;;;;;;;;5093287;28;20036;-76
2022/01/21 08:38:08;;;;;;;29.30;3.70;;;;;;;;;;5078260;28;20040;-71
2022/01/21 08:40:34;;;;;;;26.95;3.13;;;;;;;;;;5093670;28;20373;-71
2022/01/21 08:43:00;;;;;;;28.50;3.53;;;;;;;;;;5094314;28;20047;-71
2022/01/21 08:45:29;;;;;;;16.98;3.28;;;;;;;;;;5077226;28;20054;-71
2022/01/21 08:47:55;;;;;;;28.27;3.58;;;;;;;;;;5093913;28;20070;-71
2022/01/21 08:50:22;;;;;;;19.02;2.65;;;4.60;99.90;;;;;;5094022;28;20484;-71
2022/01/21 08:52:49;;;;;;;26.48;3.08;;;4.60;99.90;;;;;;5094018;28;20043;-71
2022/01/21 08:55:19;;;;;;;23.02;3.20;;;4.60;99.90;;;;;;5094176;28;20475;-71
2022/01/21 08:57:47;;;;;;;29.35;3.10;;;4.70;99.90;;;;;;5093963;28;20080;-71
2022/01/21 09:00:20;;;;;;;26.02;3.22;;;4.70;99.90;;;;;;5093742;28;20044;-71
2022/01/21 09:02:46;;;;;;;20.40;3.33;;;;;;;;;;5077124;28;20050;-71
2022/01/21 09:05:12;;;;;;;24.13;2.55;;;;;;;;;;5077414;28;20093;-71
2022/01/21 09:07:39;;;;;;;26.00;3.65;;;;;;;;;;5077031;28;20051;-71
2022/01/21 09:10:06;;;;;;;26.60;3.92;;;5.40;99.90;;;;;;5094101;28;20504;-71
2022/01/21 09:12:32;;;;;;;27.92;2.95;;;4.90;99.90;;;;;;5076804;28;20484;-71
2022/01/21 09:14:58;;;;;;;23.70;2.95;;;;;;;;;;5093976;28;20047;-71
2022/01/21 09:17:25;;;;;;;26.70;3.83;;;;;;;;;;5076901;28;20040;-70
2022/01/21 09:19:51;;;;;;;27.45;2.88;;;;;;;;;;5077163;28;20178;-71
2022/01/21 09:22:17;;;;;;;21.83;3.80;;;;;;;;;;5093834;28;20043;-71
2022/01/21 09:24:43;;;;;;;40.35;3.58;;;;;;;;;;5093518;28;20040;-71
2022/01/21 09:27:09;;;;;;;30.15;3.58;;;;;;;;;;5093504;28;20071;-71
2022/01/21 09:29:36;;;;;;;28.70;3.03;;;;;;;;;;5093360;28;20036;-71
2022/01/21 09:32:05;;;;;;;21.95;3.30;;;5.30;99.90;;;;;;5092980;28;20052;-71
2022/01/21 09:34:31;;;;;;;26.38;2.50;;;5.40;99.90;;;;;;5093331;28;20043;-71
2022/01/21 09:36:59;;;;;;;20.83;2.75;;;5.60;99.90;;;;;;5088833;28;20130;-70
2022/01/21 09:39:27;;;;;;;23.63;2.63;;;5.60;99.90;;;;;;5113754;28;20434;-71
2022/01/21 09:41:58;;;;;;;17.98;2.38;;;5.70;99.90;;;;;;5113732;28;20414;-71
2022/01/21 09:44:25;;;;;;;12.77;2.67;;;;;;;;;;5113428;28;20075;-71
2022/01/21 09:46:52;;;;;;;24.67;2.72;;;;;;;;;;5113295;28;20118;-71
2022/01/21 09:51:54;;;;;;;21.60;3.00;;;;;;;;;;5113524;28;20390;-71
2022/01/21 09:54:24;;;;;;;18.00;2.53;;;6.20;99.90;;;;;;5113455;28;20039;-71
2022/01/21 09:56:52;;;;;;;15.32;2.20;;;;;;;;;;5113595;28;20082;-71
2022/01/21 09:59:19;;;;;;;19.35;2.40;;;;;;;;;;5113255;28;20092;-71
2022/01/21 10:01:49;;;;;;;20.65;2.67;;;6.40;99.90;;;;;;5113141;28;20035;-71
2022/01/21 10:04:16;;;;;;;24.25;3.45;;;;;;;;;;5113117;28;20039;-71
2022/01/21 10:06:47;;;;;;;34.10;3.05;;;6.20;99.90;;;;;;5112930;28;20040;-71
2022/01/21 10:09:19;;;;;;;19.60;3.17;;;6.30;99.90;;;;;;5113075;28;20036;-71
2022/01/21 10:11:49;;;;;;;15.95;2.33;;;;;;;;;;5112277;28;20051;-71
2022/01/21 10:14:19;;;;;;;20.30;3.08;;;6.50;99.90;;;;;;5112946;28;20040;-71
2022/01/21 10:16:46;;;;;;;25.35;2.92;;;;;;;;;;5112940;28;20047;-71
2022/01/21 10:19:12;;;;;;;19.92;2.55;;;;;;;;;;5112926;28;20039;-71
2022/01/21 10:21:43;;;;;;;21.85;2.58;;;6.40;99.90;;;;;;5112951;28;20122;-71
2022/01/21 10:24:14;;;;;;;23.65;2.75;;;6.60;99.90;;;;;;5112882;28;20433;-71
2022/01/21 10:26:49;;;;;;;23.10;3.47;;;6.30;99.90;;;;;;5112817;28;20516;-71
2022/01/21 10:29:15;;;;;;;24.23;3.60;;;;;;;;;;5112832;28;20399;-71
2022/01/21 10:32:02;;;;;;;15.07;2.50;;;;;;;;;;5112557;28;20532;-71
2022/01/21 10:34:34;;;;;;;23.90;3.65;;;6.70;99.90;;;;;;5112459;28;20084;-71
2022/01/21 10:37:06;;;;;;;20.23;3.28;;;;;;;;;;5112782;28;20048;-71
2022/01/21 10:39:35;;;;;;;18.00;2.10;;;;;;;;;;5079806;28;20035;-71
2022/01/21 10:42:01;;;;;;;19.80;2.70;;;6.60;99.90;;;;;;5112751;28;20043;-71
2022/01/21 10:44:30;;;;;;;29.45;2.80;;;;;;;;;;5112677;28;20050;-71
2022/01/21 10:47:11;;;;;;;22.95;2.90;;;6.70;99.90;;;;;;5112105;28;20035;-71
2022/01/21 10:49:39;;;;;;;25.50;2.80;;;6.70;99.90;;;;;;5111920;28;20043;-71
2022/01/21 10:52:09;;;;;;;18.50;3.38;;;6.80;99.90;;;;;;5094110;28;20067;-71
2022/01/21 10:54:40;;;;;;;20.30;2.60;;;;;;;;;;5095987;28;20044;-71
2022/01/21 10:57:06;;;;;;;24.70;2.50;;;6.30;99.90;;;;;;5095766;28;20047;-71
2022/01/21 10:59:50;;;;;;;14.60;3.72;;;7.20;99.90;;;;;;5112410;28;20557;-71
2022/01/21 11:02:35;;;;;;;17.85;2.90;;;6.70;99.90;;;;;;5112404;28;20040;-71
2022/01/21 11:05:08;;;;;;;15.75;2.15;;;6.90;99.90;;;;;;5112862;28;20469;-71
2022/01/21 11:08:01;;;;;;;18.05;2.50;;;6.80;99.90;;;;;;5112334;28;20484;-71
2022/01/21 11:10:34;;;;;;;12.48;2.15;;;6.80;99.90;;;;;;5095770;28;20142;-71
2022/01/21 11:13:21;;;;;;;16.60;2.95;;;6.80;99.90;;;;;;5111158;28;20082;-71
2022/01/21 11:15:54;;;;;;;27.15;3.50;;;;;;;;;;5095088;28;20058;-71
2022/01/21 11:18:21;;;;;;;;;;;6.90;99.90;;;;;;5113021;28;20055;-71
2022/01/21 11:20:50;;;;;;;22.30;3.78;;;6.90;99.90;;;;;;5112214;28;19915;-71
2022/01/21 11:23:17;;;;;;;20.63;2.30;;;6.90;99.90;;;;;;5115352;28;20040;-71
2022/01/21 11:25:51;;;;;;;19.33;2.60;;;7.00;99.90;;;;;;5116059;28;20051;-71
2022/01/21 11:28:21;;;;;;;17.58;2.53;;;6.70;99.90;;;;;;5116036;28;20043;-71
2022/01/21 11:30:48;;;;;;;19.08;2.45;;;;;;;;;;5116079;28;20096;-71
2022/01/21 11:33:14;;;;;;;16.08;2.60;;;;;;;;;;5115866;28;20048;-71
2022/01/21 11:35:40;;;;;;;22.52;4.28;;;;;;;;;;5099184;28;20395;-71
2022/01/21 11:38:09;;;;;;;21.35;3.22;;;7.10;99.90;;;;;;5099030;28;20043;-72
2022/01/21 11:40:36;;;;;;;16.88;2.70;;;;;;;;;;5099120;28;20035;-72
2022/01/21 11:43:03;;;;;;;20.77;2.63;;;;;;;;;;5115958;28;20084;-72
2022/01/21 11:50:45;;;;;;;22.73;3.13;;;7.00;99.90;;;;;;5115573;28;20047;-72
2022/01/21 11:53:11;;;;;;;23.92;2.25;;;;;;;;;;5115937;28;20066;-72
2022/01/21 11:55:45;;;;;;;23.40;2.75;;;7.00;99.90;;;;;;5098660;28;20086;-72
2022/01/21 11:58:12;;;;;;;32.53;3.53;;;;;;;;;;5115860;28;20524;-72
2022/01/21 12:00:40;;;;;;;30.13;3.15;;;7.10;99.90;;;;;;5115558;28;20047;-72
2022/01/21 12:03:06;;;;;;;23.80;2.75;;;;;;;;;;5115623;28;20059;-72
2022/01/21 12:05:33;;;;;;;24.10;3.58;;;;;;;;;;5115610;28;20383;-72
2022/01/21 12:08:04;;;;;;;30.42;4.07;;;;;;;;;;5115316;28;20492;-72
2022/01/21 12:10:37;;;;;;;19.33;3.33;;;7.20;99.90;;;;;;5115659;28;20047;-72
2022/01/21 12:13:05;;;;;;;19.75;2.58;;;;;;;;;;5106818;28;20054;-71
2022/01/21 12:15:38;;;;;;;19.23;2.75;;;;;;;;;;5079258;28;20032;-71
2022/01/21 12:20:59;;;;;;;39.67;3.22;;;;;;;;;;5108979;28;20062;-71
2022/01/21 12:23:27;;;;;;;18.55;3.45;;;7.40;99.90;;;;;;5098713;28;20047;-71
2022/01/21 12:26:14;;;;;;;25.52;2.97;;;7.40;99.90;;;;;;5095732;28;20051;-71
2022/01/21 12:28:44;;;;;;;19.73;3.70;;;7.00;99.90;;;;;;5094978;28;20156;-71
2022/01/21 12:31:11;;;;;;;20.10;4.22;;;;;;;;;;5079017;28;20051;-72
2022/01/21 12:36:16;;;;;;;26.13;3.72;;;;;;;;;;5114391;28;20507;-72
2022/01/21 12:41:17;;;;;;;20.80;2.58;;;;;;;;;;5094239;28;20098;-72
2022/01/21 12:43:43;;;;;;;26.92;4.43;;;;;;;;;;5103045;28;20039;-71
2022/01/21 12:46:12;;;;;;;23.98;3.20;;;;;;;;;;5113308;28;20231;-71
2022/01/21 12:48:39;;;;;;;20.48;4.05;;;;;;;;;;5112158;28;20153;-71
2022/01/21 12:51:15;;;;;;;24.98;3.35;;;;;;;;;;5113611;28;20050;-71
2022/01/21 12:56:41;;;;;;;19.23;4.47;;;7.80;99.90;;;;;;5097295;28;20523;-71
2022/01/21 12:59:08;;;;;;;23.98;3.00;;;;;;;;;;5078371;28;20040;-70
2022/01/21 13:01:38;;;;;;;23.23;3.05;;;7.10;99.90;;;;;;5094066;28;20040;-71
2022/01/21 13:04:11;;;;;;;25.33;3.17;;;6.90;99.90;;;;;;5095572;28;20082;-72
2022/01/21 13:06:55;;;;;;;22.35;3.03;;;7.20;99.90;;;;;;5094899;28;20078;-71
2022/01/21 13:09:32;;;;;;;23.45;3.00;;;;;;;;;;5114296;28;20035;-71
2022/01/21 13:12:04;;;;;;;23.88;3.20;;;;;;;;;;5114135;28;20187;-71
2022/01/21 13:17:00;;;;;;;23.20;3.28;;;;;;;;;;5097779;28;20063;-72
2022/01/21 13:19:27;;;;;;;21.67;2.90;;;7.10;99.90;;;;;;5112822;28;20044;-71
2022/01/21 13:21:53;;;;;;;22.20;2.85;;;;;;;;;;5106602;28;20036;-72
2022/01/21 13:24:30;;;;;;;29.27;3.15;;;;;;;;;;5093663;28;20075;-72
2022/01/21 13:26:58;;;;;;;27.27;3.20;;;7.10;99.90;;;;;;5093791;28;20059;-72
2022/01/21 13:29:32;;;;;;;26.40;2.97;;;7.30;99.90;;;;;;5094598;28;20036;-72
2022/01/21 13:32:00;;;;;;;28.65;3.08;;;6.90;99.90;;;;;;5100189;28;20046;-72
2022/01/21 13:34:29;;;;;;;20.98;2.85;;;6.50;99.90;;;;;;5113469;28;20140;-72
2022/01/21 13:36:57;;;;;;;32.35;4.63;;;7.00;99.90;;;;;;5113963;28;20387;-72
2022/01/21 13:39:33;;;;;;;29.17;4.18;;;7.00;99.90;;;;;;5095117;28;20058;-72
2022/01/21 13:42:11;;;;;;;21.58;3.58;;;7.10;99.90;;;;;;5096850;28;20086;-72
2022/01/21 13:44:41;;;;;;;22.02;2.42;;;7.00;99.90;;;;;;5102568;28;20032;-71
2022/01/21 13:47:23;;;;;;;30.95;3.17;;;7.20;99.90;;;;;;5093050;28;20051;-71
2022/01/21 13:49:50;;;;;;;20.08;3.22;;;;;;;;;;5094071;28;20036;-70
2022/01/21 13:52:16;;;;;;;45.33;3.35;;;;;;;;;;5092766;28;20127;-71
2022/01/21 13:54:51;;;;;;;26.77;3.00;;;7.10;99.90;;;;;;5092827;28;20044;-72
2022/01/21 13:57:26;;;;;;;25.70;2.90;;;7.10;99.90;;;;;;5108192;28;20035;-71
2022/01/21 13:59:53;;;;;;;25.95;3.17;;;;;;;;;;5094638;28;20130;-70
2022/01/21 14:02:19;;;;;;;25.73;3.97;;;;;;;;;;5113093;28;20050;-71
2022/01/21 14:05:01;;;;;;;25.50;2.67;;;7.00;99.90;;;;;;5113433;28;20396;-71
2022/01/21 14:07:35;;;;;;;29.13;3.20;;;7.10;99.90;;;;;;5112944;28;20468;-72
2022/01/21 14:10:02;;;;;;;28.45;4.18;;;7.10;99.90;;;;;;5097677;28;20170;-71
2022/01/21 14:12:30;;;;;;;18.50;3.08;;;7.10;99.90;;;;;;5092775;28;20114;-71
2022/01/21 14:14:56;;;;;;;20.95;2.78;;;;;;;;;;5093942;28;20048;-71
2022/01/21 14:17:26;;;;;;;21.17;2.80;;;7.20;99.90;;;;;;5112892;28;20044;-71
2022/01/21 14:19:54;;;;;;;23.83;2.85;;;7.10;99.90;;;;;;5108528;28;20055;-71
2022/01/21 14:22:20;;;;;;;26.13;4.45;;;;;;;;;;5092566;28;20044;-71
2022/01/21 14:24:48;;;;;;;29.67;2.70;;;7.00;99.90;;;;;;5092294;28;20474;-71
2022/01/21 14:27:24;;;;;;;29.52;3.20;;;6.90;99.90;;;;;;5092269;28;20044;-71
2022/01/21 14:30:02;;;;;;;28.63;3.90;;;7.20;99.90;;;;;;5093750;28;20032;-71
2022/01/21 14:32:38;;;;;;;24.77;2.25;;;7.10;99.90;;;;;;5097696;28;20391;-69
2022/01/21 14:35:06;;;;;;;20.52;3.08;;;7.20;99.90;;;;;;5083708;28;20040;-71
2022/01/21 14:37:35;;;;;;;22.02;3.00;;;;;;;;;;5106072;28;20039;-71
2022/01/21 14:40:03;;;;;;;18.23;2.80;;;;;;;;;;5095325;28;20066;-71
2022/01/21 14:42:29;;;;;;;19.63;2.58;;;;;;;;;;5112536;28;20054;-71
2022/01/21 14:44:58;;;;;;;16.60;2.20;;;7.10;99.90;;;;;;5112856;28;20032;-71
2022/01/21 14:47:29;;;;;;;16.38;2.75;;;7.00;99.90;;;;;;5112525;28;20395;-71
2022/01/21 14:49:55;;;;;;;14.73;2.50;;;;;;;;;;5112452;28;20039;-71
2022/01/21 14:52:36;;;;;;;14.70;2.40;;;;;;;;;;5107843;28;20039;-71
2022/01/21 14:55:26;;;;;;;17.42;2.15;;;6.80;99.90;;;;;;5088110;28;20040;-71
2022/01/21 14:57:55;;;;;;;20.58;2.67;;;7.50;99.90;;;;;;5113862;27;20118;-71
2022/01/21 15:00:48;;;;;;;18.48;1.80;;;7.10;99.90;;;;;;5122360;27;20047;-71
2022/01/21 15:03:29;;;;;;;16.77;2.22;;;7.20;99.90;;;;;;5099029;28;20036;-71
2022/01/21 15:06:07;;;;;;;21.48;2.92;;;6.90;99.90;;;;;;5107844;28;20130;-72
2022/01/21 15:08:40;;;;;;;15.35;3.00;;;6.70;99.90;;;;;;5115602;28;20551;-71